sensor_id;sensor_type;location;lat;lon;timestamp;temperature;humidity
10662;DHT22;5379;51.034;7.006;2024-01-25T00:01:52;12.20;99.90
10662;DHT22;5379;51.034;7.006;2024-01-25T00:04:20;12.10;99.90
10662;DHT22;5379;51.034;7.006;2024-01-25T00:06:47;11.90;99.90
10662;DHT22;5379;51.034;7.006;2024-01-25T00:09:13;11.80;99.90
10662;DHT22;5379;51.034;7.006;2024-01-25T00:11:40;11.80;99.90
10662;DHT22;5379;51.034;7.006;2024-01-25T00:14:08;11.80;99.90
10662;DHT22;5379;51.034;7.006;2024-01-25T00:16:35;11.90;99.90
10662;DHT22;5379;51.034;7.006;2024-01-25T00:19:02;11.80;99.90
10662;DHT22;5379;51.034;7.006;2024-01-25T00:21:29;11.70;99.90
10662;DHT22;5379;51.034;7.006;2024-01-25T00:23:56;11.70;99.90
10662;DHT22;5379;51.034;7.006;2024-01-25T00:26:22;11.30;99.90
10662;DHT22;5379;51.034;7.006;2024-01-25T00:28:49;11.60;99.90
10662;DHT22;5379;51.034;7.006;2024-01-25T00:31:17;11.60;99.90
10662;DHT22;5379;51.034;7.006;2024-01-25T00:33:44;11.70;99.90
10662;DHT22;5379;51.034;7.006;2024-01-25T00:36:12;11.70;99.90
10662;DHT22;5379;51.034;7.006;2024-01-25T00:38:39;11.50;99.90
10662;DHT22;5379;51.034;7.006;2024-01-25T00:41:09;11.50;99.90
10662;DHT22;5379;51.034;7.006;2024-01-25T00:43:36;11.50;99.90
10662;DHT22;5379;51.034;7.006;2024-01-25T00:46:03;11.60;99.90
10662;DHT22;5379;51.034;7.006;2024-01-25T00:48:32;11.60;99.90
10662;DHT22;5379;51.034;7.006;2024-01-25T00:50:59;11.60;99.90
10662;DHT22;5379;51.034;7.006;2024-01-25T00:53:26;11.60;99.90
10662;DHT22;5379;51.034;7.006;2024-01-25T00:55:54;11.70;99.90
10662;DHT22;5379;51.034;7.006;2024-01-25T00:58:21;11.70;99.90
10662;DHT22;5379;51.034;7.006;2024-01-25T05:31:30;9.00;99.90
10662;DHT22;5379;51.034;7.006;2024-01-25T05:33:56;9.00;99.90
10662;DHT22;5379;51.034;7.006;2024-01-25T05:36:23;9.00;99.90
10662;DHT22;5379;51.034;7.006;2024-01-25T05:38:50;9.00;99.90
10662;DHT22;5379;51.034;7.006;2024-01-25T05:41:17;8.90;99.90
10662;DHT22;5379;51.034;7.006;2024-01-25T05:43:44;8.90;99.90
10662;DHT22;5379;51.034;7.006;2024-01-25T05:46:11;8.90;99.90
10662;DHT22;5379;51.034;7.006;2024-01-25T05:48:39;8.70;99.90
10662;DHT22;5379;51.034;7.006;2024-01-25T05:51:06;8.70;99.90
10662;DHT22;5379;51.034;7.006;2024-01-25T05:53:32;8.70;99.90
10662;DHT22;5379;51.034;7.006;2024-01-25T05:56:00;8.70;99.90
10662;DHT22;5379;51.034;7.006;2024-01-25T05:58:29;8.80;99.90
10662;DHT22;5379;51.034;7.006;2024-01-25T06:00:56;8.80;99.90
10662;DHT22;5379;51.034;7.006;2024-01-25T06:03:23;8.70;99.90
10662;DHT22;5379;51.034;7.006;2024-01-25T06:05:51;8.70;99.90
10662;DHT22;5379;51.034;7.006;2024-01-25T06:08:18;8.60;99.90
10662;DHT22;5379;51.034;7.006;2024-01-25T06:10:45;8.60;99.90
10662;DHT22;5379;51.034;7.006;2024-01-25T06:13:11;8.60;99.90
10662;DHT22;5379;51.034;7.006;2024-01-25T06:15:38;8.40;99.90
10662;DHT22;5379;51.034;7.006;2024-01-25T06:18:05;8.40;99.90
10662;DHT22;5379;51.034;7.006;2024-01-25T06:20:32;8.50;99.90
10662;DHT22;5379;51.034;7.006;2024-01-25T06:23:01;8.50;99.90
10662;DHT22;5379;51.034;7.006;2024-01-25T06:25:27;8.50;99.90
10662;DHT22;5379;51.034;7.006;2024-01-25T06:27:56;8.50;99.90
10662;DHT22;5379;51.034;7.006;2024-01-25T06:30:24;8.50;99.90
10662;DHT22;5379;51.034;7.006;2024-01-25T06:35:18;8.40;99.90
10662;DHT22;5379;51.034;7.006;2024-01-25T06:37:45;8.40;99.90
10662;DHT22;5379;51.034;7.006;2024-01-25T06:40:13;8.10;99.90
10662;DHT22;5379;51.034;7.006;2024-01-25T06:42:40;8.20;99.90
10662;DHT22;5379;51.034;7.006;2024-01-25T06:45:08;8.10;99.90
10662;DHT22;5379;51.034;7.006;2024-01-25T06:47:35;8.10;99.90
10662;DHT22;5379;51.034;7.006;2024-01-25T06:50:02;8.10;99.90
10662;DHT22;5379;51.034;7.006;2024-01-25T06:54:56;8.10;99.90
10662;DHT22;5379;51.034;7.006;2024-01-25T06:57:24;8.00;99.90
10662;DHT22;5379;51.034;7.006;2024-01-25T06:59:50;8.00;99.90
10662;DHT22;5379;51.034;7.006;2024-01-25T07:02:17;8.10;99.90
10662;DHT22;5379;51.034;7.006;2024-01-25T07:04:44;8.10;99.90
10662;DHT22;5379;51.034;7.006;2024-01-25T07:07:11;8.10;99.90
10662;DHT22;5379;51.034;7.006;2024-01-25T07:09:37;7.90;99.90
10662;DHT22;5379;51.034;7.006;2024-01-25T07:12:05;7.90;99.90
10662;DHT22;5379;51.034;7.006;2024-01-25T07:14:34;7.90;99.90
10662;DHT22;5379;51.034;7.006;2024-01-25T07:17:00;7.90;99.90
10662;DHT22;5379;51.034;7.006;2024-01-25T07:19:27;7.90;99.90
10662;DHT22;5379;51.034;7.006;2024-01-25T07:24:21;7.90;99.90
10662;DHT22;5379;51.034;7.006;2024-01-25T07:26:48;8.00;99.90
10662;DHT22;5379;51.034;7.006;2024-01-25T07:29:15;8.00;99.90
10662;DHT22;5379;51.034;7.006;2024-01-25T07:31:43;8.00;99.90
10662;DHT22;5379;51.034;7.006;2024-01-25T07:34:09;8.10;99.90
10662;DHT22;5379;51.034;7.006;2024-01-25T07:36:36;8.10;99.90
10662;DHT22;5379;51.034;7.006;2024-01-25T07:39:03;7.90;99.90
10662;DHT22;5379;51.034;7.006;2024-01-25T07:41:30;7.80;99.90
10662;DHT22;5379;51.034;7.006;2024-01-25T07:43:57;7.80;99.90
10662;DHT22;5379;51.034;7.006;2024-01-25T07:46:24;7.90;99.90
10662;DHT22;5379;51.034;7.006;2024-01-25T07:48:52;7.80;99.90
10662;DHT22;5379;51.034;7.006;2024-01-25T07:51:19;7.70;99.90
10662;DHT22;5379;51.034;7.006;2024-01-25T07:53:46;7.80;99.90
10662;DHT22;5379;51.034;7.006;2024-01-25T07:56:13;7.80;99.90
10662;DHT22;5379;51.034;7.006;2024-01-25T07:58:40;7.70;99.90
10662;DHT22;5379;51.034;7.006;2024-01-25T08:01:07;7.90;99.90
10662;DHT22;5379;51.034;7.006;2024-01-25T08:03:34;8.00;99.90
10662;DHT22;5379;51.034;7.006;2024-01-25T08:06:05;8.10;99.90
10662;DHT22;5379;51.034;7.006;2024-01-25T08:08:33;8.00;99.90
10662;DHT22;5379;51.034;7.006;2024-01-25T08:11:00;8.10;99.90
10662;DHT22;5379;51.034;7.006;2024-01-25T08:13:26;8.20;99.90
10662;DHT22;5379;51.034;7.006;2024-01-25T08:15:54;8.10;99.90
10662;DHT22;5379;51.034;7.006;2024-01-25T08:18:20;8.00;99.90
10662;DHT22;5379;51.034;7.006;2024-01-25T08:20:48;8.00;99.90
10662;DHT22;5379;51.034;7.006;2024-01-25T08:23:17;8.20;99.90
10662;DHT22;5379;51.034;7.006;2024-01-25T08:25:44;8.20;99.90
10662;DHT22;5379;51.034;7.006;2024-01-25T08:28:11;8.30;99.90
10662;DHT22;5379;51.034;7.006;2024-01-25T08:30:37;8.40;99.90
10662;DHT22;5379;51.034;7.006;2024-01-25T08:33:04;8.40;99.90
10662;DHT22;5379;51.034;7.006;2024-01-25T08:35:31;8.20;99.90
10662;DHT22;5379;51.034;7.006;2024-01-25T08:37:58;8.10;99.90
10662;DHT22;5379;51.034;7.006;2024-01-25T08:40:26;8.00;99.90
10662;DHT22;5379;51.034;7.006;2024-01-25T08:50:18;8.00;99.90
10662;DHT22;5379;51.034;7.006;2024-01-25T08:55:13;8.30;99.90
10662;DHT22;5379;51.034;7.006;2024-01-25T08:57:41;8.30;99.90
10662;DHT22;5379;51.034;7.006;2024-01-25T09:00:09;8.50;99.90
10662;DHT22;5379;51.034;7.006;2024-01-25T09:02:36;8.50;99.90
10662;DHT22;5379;51.034;7.006;2024-01-25T09:05:04;8.50;99.90
10662;DHT22;5379;51.034;7.006;2024-01-25T09:07:31;8.50;99.90
10662;DHT22;5379;51.034;7.006;2024-01-25T09:09:58;8.40;99.90
10662;DHT22;5379;51.034;7.006;2024-01-25T09:12:24;8.60;99.90
10662;DHT22;5379;51.034;7.006;2024-01-25T09:14:52;8.60;99.90
10662;DHT22;5379;51.034;7.006;2024-01-25T09:17:19;8.80;99.90
10662;DHT22;5379;51.034;7.006;2024-01-25T09:19:48;8.90;99.90
10662;DHT22;5379;51.034;7.006;2024-01-25T09:22:16;8.90;99.90
10662;DHT22;5379;51.034;7.006;2024-01-25T09:24:45;8.90;99.90
10662;DHT22;5379;51.034;7.006;2024-01-25T09:27:12;9.90;99.90
10662;DHT22;5379;51.034;7.006;2024-01-25T09:29:39;9.10;99.90
10662;DHT22;5379;51.034;7.006;2024-01-25T09:32:07;9.10;99.90
10662;DHT22;5379;51.034;7.006;2024-01-25T09:34:35;9.10;99.90
10662;DHT22;5379;51.034;7.006;2024-01-25T09:37:02;9.10;99.90
10662;DHT22;5379;51.034;7.006;2024-01-25T09:39:30;9.20;99.90
10662;DHT22;5379;51.034;7.006;2024-01-25T09:41:57;9.20;99.90
10662;DHT22;5379;51.034;7.006;2024-01-25T09:44:24;9.20;99.90
10662;DHT22;5379;51.034;7.006;2024-01-25T09:49:20;9.20;99.90
10662;DHT22;5379;51.034;7.006;2024-01-25T09:51:47;9.30;99.90
10662;DHT22;5379;51.034;7.006;2024-01-25T09:54:16;9.30;99.90
10662;DHT22;5379;51.034;7.006;2024-01-25T09:56:44;9.30;99.90
10662;DHT22;5379;51.034;7.006;2024-01-25T10:04:07;9.50;99.90
10662;DHT22;5379;51.034;7.006;2024-01-25T10:06:35;9.60;99.90
10662;DHT22;5379;51.034;7.006;2024-01-25T10:09:04;9.60;99.90
10662;DHT22;5379;51.034;7.006;2024-01-25T10:27:17;9.70;99.90
10662;DHT22;5379;51.034;7.006;2024-01-25T10:29:49;9.80;99.90
10662;DHT22;5379;51.034;7.006;2024-01-25T10:34:45;10.00;99.90
10662;DHT22;5379;51.034;7.006;2024-01-25T10:39:43;10.00;99.90
10662;DHT22;5379;51.034;7.006;2024-01-25T10:42:11;10.10;99.90
10662;DHT22;5379;51.034;7.006;2024-01-25T10:49:34;10.00;99.90
10662;DHT22;5379;51.034;7.006;2024-01-25T10:52:04;9.90;99.90
10662;DHT22;5379;51.034;7.006;2024-01-25T10:54:33;9.90;99.90
10662;DHT22;5379;51.034;7.006;2024-01-25T10:57:00;10.00;99.90
10662;DHT22;5379;51.034;7.006;2024-01-25T10:59:28;10.00;99.90
10662;DHT22;5379;51.034;7.006;2024-01-25T11:01:56;10.00;99.90
10662;DHT22;5379;51.034;7.006;2024-01-25T11:04:23;10.10;99.90
10662;DHT22;5379;51.034;7.006;2024-01-25T11:06:51;10.10;99.90
10662;DHT22;5379;51.034;7.006;2024-01-25T11:09:18;10.20;99.90
10662;DHT22;5379;51.034;7.006;2024-01-25T11:11:48;10.20;99.90
10662;DHT22;5379;51.034;7.006;2024-01-25T11:14:15;10.30;99.90
10662;DHT22;5379;51.034;7.006;2024-01-25T11:16:46;10.30;99.90
10662;DHT22;5379;51.034;7.006;2024-01-25T11:19:17;10.40;99.90
10662;DHT22;5379;51.034;7.006;2024-01-25T11:21:45;10.50;99.90
10662;DHT22;5379;51.034;7.006;2024-01-25T11:24:13;10.50;99.90
10662;DHT22;5379;51.034;7.006;2024-01-25T11:26:41;10.50;99.90
10662;DHT22;5379;51.034;7.006;2024-01-25T11:29:10;10.40;99.90
10662;DHT22;5379;51.034;7.006;2024-01-25T11:31:37;10.60;99.90
10662;DHT22;5379;51.034;7.006;2024-01-25T11:34:04;10.60;99.90
10662;DHT22;5379;51.034;7.006;2024-01-25T11:36:31;10.70;99.90
10662;DHT22;5379;51.034;7.006;2024-01-25T11:38:58;10.80;99.90
10662;DHT22;5379;51.034;7.006;2024-01-25T11:41:25;10.80;99.90
10662;DHT22;5379;51.034;7.006;2024-01-25T11:43:52;10.80;99.90
10662;DHT22;5379;51.034;7.006;2024-01-25T11:46:22;10.90;99.90
10662;DHT22;5379;51.034;7.006;2024-01-25T11:48:49;11.00;99.90
10662;DHT22;5379;51.034;7.006;2024-01-25T11:51:15;11.10;99.90
10662;DHT22;5379;51.034;7.006;2024-01-25T11:53:42;11.20;99.90
10662;DHT22;5379;51.034;7.006;2024-01-25T11:56:10;11.30;99.90
10662;DHT22;5379;51.034;7.006;2024-01-25T11:58:39;11.30;99.90
10662;DHT22;5379;51.034;7.006;2024-01-25T12:01:07;11.30;99.90
10662;DHT22;5379;51.034;7.006;2024-01-25T12:03:35;11.40;99.90
10662;DHT22;5379;51.034;7.006;2024-01-25T12:06:03;11.40;99.90
10662;DHT22;5379;51.034;7.006;2024-01-25T12:08:31;11.40;99.90
10662;DHT22;5379;51.034;7.006;2024-01-25T12:11:05;11.60;99.90
10662;DHT22;5379;51.034;7.006;2024-01-25T12:13:33;11.50;99.90
10662;DHT22;5379;51.034;7.006;2024-01-25T12:16:00;11.60;99.90
10662;DHT22;5379;51.034;7.006;2024-01-25T12:18:28;12.10;99.90
10662;DHT22;5379;51.034;7.006;2024-01-25T12:20:58;11.70;99.90
10662;DHT22;5379;51.034;7.006;2024-01-25T12:23:30;11.80;99.90
10662;DHT22;5379;51.034;7.006;2024-01-25T12:25:59;11.80;99.90
10662;DHT22;5379;51.034;7.006;2024-01-25T12:28:27;11.90;99.90
10662;DHT22;5379;51.034;7.006;2024-01-25T12:30:54;12.00;99.90
10662;DHT22;5379;51.034;7.006;2024-01-25T12:38:17;11.90;99.90
10662;DHT22;5379;51.034;7.006;2024-01-25T12:40:46;11.90;99.90
10662;DHT22;5379;51.034;7.006;2024-01-25T12:43:13;12.10;99.90
10662;DHT22;5379;51.034;7.006;2024-01-25T12:45:40;12.60;99.90
10662;DHT22;5379;51.034;7.006;2024-01-25T12:48:10;12.20;99.90
10662;DHT22;5379;51.034;7.006;2024-01-25T12:50:37;11.90;99.90
10662;DHT22;5379;51.034;7.006;2024-01-25T12:53:05;11.80;99.90
10662;DHT22;5379;51.034;7.006;2024-01-25T12:55:33;11.90;99.90
10662;DHT22;5379;51.034;7.006;2024-01-25T12:58:00;11.80;99.90
10662;DHT22;5379;51.034;7.006;2024-01-25T13:00:28;11.90;99.90
10662;DHT22;5379;51.034;7.006;2024-01-25T13:02:55;11.90;99.90
10662;DHT22;5379;51.034;7.006;2024-01-25T13:05:22;12.30;99.90
10662;DHT22;5379;51.034;7.006;2024-01-25T13:07:49;12.60;99.90
10662;DHT22;5379;51.034;7.006;2024-01-25T13:10:16;12.60;99.90
10662;DHT22;5379;51.034;7.006;2024-01-25T13:12:44;12.30;99.90
10662;DHT22;5379;51.034;7.006;2024-01-25T13:15:11;12.30;99.90
10662;DHT22;5379;51.034;7.006;2024-01-25T13:17:37;12.20;99.90
10662;DHT22;5379;51.034;7.006;2024-01-25T13:20:05;12.00;99.90
10662;DHT22;5379;51.034;7.006;2024-01-25T13:22:32;11.90;99.90
10662;DHT22;5379;51.034;7.006;2024-01-25T13:25:00;11.90;99.90
10662;DHT22;5379;51.034;7.006;2024-01-25T13:27:27;12.10;99.90
10662;DHT22;5379;51.034;7.006;2024-01-25T13:29:55;12.40;99.90
10662;DHT22;5379;51.034;7.006;2024-01-25T13:32:22;12.70;99.90
10662;DHT22;5379;51.034;7.006;2024-01-25T13:34:50;12.90;99.90
10662;DHT22;5379;51.034;7.006;2024-01-25T13:37:16;13.10;99.90
10662;DHT22;5379;51.034;7.006;2024-01-25T13:39:43;13.20;99.90
10662;DHT22;5379;51.034;7.006;2024-01-25T13:42:10;13.00;99.90
10662;DHT22;5379;51.034;7.006;2024-01-25T13:44:37;12.50;99.90
10662;DHT22;5379;51.034;7.006;2024-01-25T13:47:06;12.30;99.90
10662;DHT22;5379;51.034;7.006;2024-01-25T13:49:33;12.20;99.90
10662;DHT22;5379;51.034;7.006;2024-01-25T13:52:01;12.10;99.90
10662;DHT22;5379;51.034;7.006;2024-01-25T13:54:28;12.00;99.90
10662;DHT22;5379;51.034;7.006;2024-01-25T13:56:55;12.20;99.90
10662;DHT22;5379;51.034;7.006;2024-01-25T13:59:22;12.00;99.90
10662;DHT22;5379;51.034;7.006;2024-01-25T14:01:49;12.00;99.90
10662;DHT22;5379;51.034;7.006;2024-01-25T14:04:18;11.90;99.90
10662;DHT22;5379;51.034;7.006;2024-01-25T14:06:44;11.90;99.90
10662;DHT22;5379;51.034;7.006;2024-01-25T14:09:11;11.90;99.90
10662;DHT22;5379;51.034;7.006;2024-01-25T14:11:38;11.90;99.90
10662;DHT22;5379;51.034;7.006;2024-01-25T14:14:05;11.80;99.90
10662;DHT22;5379;51.034;7.006;2024-01-25T14:16:32;11.90;99.90
10662;DHT22;5379;51.034;7.006;2024-01-25T14:18:59;12.10;99.90
10662;DHT22;5379;51.034;7.006;2024-01-25T14:21:30;12.10;99.90
10662;DHT22;5379;51.034;7.006;2024-01-25T14:23:57;12.00;99.90
10662;DHT22;5379;51.034;7.006;2024-01-25T14:26:24;12.00;99.90
10662;DHT22;5379;51.034;7.006;2024-01-25T14:28:51;12.10;99.90
10662;DHT22;5379;51.034;7.006;2024-01-25T14:31:18;12.10;99.90
10662;DHT22;5379;51.034;7.006;2024-01-25T14:33:44;12.10;99.90
10662;DHT22;5379;51.034;7.006;2024-01-25T14:36:11;12.20;99.90
10662;DHT22;5379;51.034;7.006;2024-01-25T14:38:40;12.20;99.90
10662;DHT22;5379;51.034;7.006;2024-01-25T14:41:08;12.20;99.90
10662;DHT22;5379;51.034;7.006;2024-01-25T14:43:36;12.10;99.90
10662;DHT22;5379;51.034;7.006;2024-01-25T14:46:03;12.40;99.90
10662;DHT22;5379;51.034;7.006;2024-01-25T14:48:30;12.80;99.90
10662;DHT22;5379;51.034;7.006;2024-01-25T14:50:57;12.50;99.90
10662;DHT22;5379;51.034;7.006;2024-01-25T14:53:24;12.30;99.90
10662;DHT22;5379;51.034;7.006;2024-01-25T14:55:52;12.20;99.90
10662;DHT22;5379;51.034;7.006;2024-01-25T14:58:19;12.00;99.90
10662;DHT22;5379;51.034;7.006;2024-01-25T15:00:48;12.00;99.90
10662;DHT22;5379;51.034;7.006;2024-01-25T15:03:15;11.90;99.90
10662;DHT22;5379;51.034;7.006;2024-01-25T15:05:42;11.90;99.90
10662;DHT22;5379;51.034;7.006;2024-01-25T15:08:09;12.00;99.90
10662;DHT22;5379;51.034;7.006;2024-01-25T15:10:36;12.00;99.90
10662;DHT22;5379;51.034;7.006;2024-01-25T15:13:04;12.10;99.90
10662;DHT22;5379;51.034;7.006;2024-01-25T15:15:31;12.20;99.90
10662;DHT22;5379;51.034;7.006;2024-01-25T15:17:58;12.10;99.90
10662;DHT22;5379;51.034;7.006;2024-01-25T15:20:24;12.30;99.90
10662;DHT22;5379;51.034;7.006;2024-01-25T15:22:51;12.30;99.90
10662;DHT22;5379;51.034;7.006;2024-01-25T15:25:18;12.90;99.90
10662;DHT22;5379;51.034;7.006;2024-01-25T15:27:45;12.80;99.90
10662;DHT22;5379;51.034;7.006;2024-01-25T15:30:14;12.80;99.90
10662;DHT22;5379;51.034;7.006;2024-01-25T15:32:42;12.80;99.90
10662;DHT22;5379;51.034;7.006;2024-01-25T15:35:11;12.80;99.90
10662;DHT22;5379;51.034;7.006;2024-01-25T15:37:38;12.80;99.90
10662;DHT22;5379;51.034;7.006;2024-01-25T15:40:07;12.70;99.90
10662;DHT22;5379;51.034;7.006;2024-01-25T15:42:37;12.50;99.90
10662;DHT22;5379;51.034;7.006;2024-01-25T15:45:05;12.40;99.90
10662;DHT22;5379;51.034;7.006;2024-01-25T15:47:35;12.40;99.90
10662;DHT22;5379;51.034;7.006;2024-01-25T15:50:02;12.40;99.90
10662;DHT22;5379;51.034;7.006;2024-01-25T15:52:30;12.40;99.90
10662;DHT22;5379;51.034;7.006;2024-01-25T15:54:57;12.30;99.90
10662;DHT22;5379;51.034;7.006;2024-01-25T15:57:24;12.30;99.90
10662;DHT22;5379;51.034;7.006;2024-01-25T15:59:51;12.10;99.90
10662;DHT22;5379;51.034;7.006;2024-01-25T16:02:18;12.20;99.90
10662;DHT22;5379;51.034;7.006;2024-01-25T16:04:46;12.20;99.90
10662;DHT22;5379;51.034;7.006;2024-01-25T16:07:13;12.10;99.90
10662;DHT22;5379;51.034;7.006;2024-01-25T16:09:39;14.00;99.90
10662;DHT22;5379;51.034;7.006;2024-01-25T16:12:08;12.00;99.90
10662;DHT22;5379;51.034;7.006;2024-01-25T16:14:35;11.90;99.90
10662;DHT22;5379;51.034;7.006;2024-01-25T16:17:02;11.80;99.90
10662;DHT22;5379;51.034;7.006;2024-01-25T16:19:29;11.70;99.90
10662;DHT22;5379;51.034;7.006;2024-01-25T16:21:58;11.70;99.90
10662;DHT22;5379;51.034;7.006;2024-01-25T16:24:24;12.20;99.90
10662;DHT22;5379;51.034;7.006;2024-01-25T16:26:51;12.00;99.90
10662;DHT22;5379;51.034;7.006;2024-01-25T16:29:18;12.10;99.90
10662;DHT22;5379;51.034;7.006;2024-01-25T16:31:45;11.90;99.90
10662;DHT22;5379;51.034;7.006;2024-01-25T16:34:11;11.80;99.90
10662;DHT22;5379;51.034;7.006;2024-01-25T16:36:38;11.80;99.90
10662;DHT22;5379;51.034;7.006;2024-01-25T16:39:06;11.90;99.90
10662;DHT22;5379;51.034;7.006;2024-01-25T16:41:33;11.90;99.90
10662;DHT22;5379;51.034;7.006;2024-01-25T16:44:00;11.90;99.90
10662;DHT22;5379;51.034;7.006;2024-01-25T16:46:27;12.00;99.90
10662;DHT22;5379;51.034;7.006;2024-01-25T16:48:55;12.10;99.90
10662;DHT22;5379;51.034;7.006;2024-01-25T16:51:22;12.10;99.90
10662;DHT22;5379;51.034;7.006;2024-01-25T16:53:49;12.60;99.90
10662;DHT22;5379;51.034;7.006;2024-01-25T16:56:17;12.00;99.90
10662;DHT22;5379;51.034;7.006;2024-01-25T16:58:44;12.20;99.90
10662;DHT22;5379;51.034;7.006;2024-01-25T17:01:10;12.20;99.90
10662;DHT22;5379;51.034;7.006;2024-01-25T17:03:37;12.10;99.90
10662;DHT22;5379;51.034;7.006;2024-01-25T17:06:04;11.90;99.90
10662;DHT22;5379;51.034;7.006;2024-01-25T17:08:33;11.90;99.90
10662;DHT22;5379;51.034;7.006;2024-01-25T17:11:00;11.90;99.90
10662;DHT22;5379;51.034;7.006;2024-01-25T17:13:28;11.90;99.90
10662;DHT22;5379;51.034;7.006;2024-01-25T17:15:55;11.90;99.90
10662;DHT22;5379;51.034;7.006;2024-01-25T17:18:22;11.90;99.90
10662;DHT22;5379;51.034;7.006;2024-01-25T17:20:49;11.80;99.90
10662;DHT22;5379;51.034;7.006;2024-01-25T17:23:15;11.80;99.90
10662;DHT22;5379;51.034;7.006;2024-01-25T17:25:42;11.80;99.90
10662;DHT22;5379;51.034;7.006;2024-01-25T17:28:09;11.70;99.90
10662;DHT22;5379;51.034;7.006;2024-01-25T17:30:38;11.80;99.90
10662;DHT22;5379;51.034;7.006;2024-01-25T17:33:05;11.60;99.90
10662;DHT22;5379;51.034;7.006;2024-01-25T17:35:32;11.50;99.90
10662;DHT22;5379;51.034;7.006;2024-01-25T17:37:58;11.50;99.90
10662;DHT22;5379;51.034;7.006;2024-01-25T17:40:25;11.70;99.90
10662;DHT22;5379;51.034;7.006;2024-01-25T17:42:52;11.70;99.90
10662;DHT22;5379;51.034;7.006;2024-01-25T17:45:19;11.70;99.90
10662;DHT22;5379;51.034;7.006;2024-01-25T17:47:47;11.70;99.90
10662;DHT22;5379;51.034;7.006;2024-01-25T17:50:14;11.60;99.90
10662;DHT22;5379;51.034;7.006;2024-01-25T17:52:41;11.60;99.90
10662;DHT22;5379;51.034;7.006;2024-01-25T17:55:08;11.50;99.90
10662;DHT22;5379;51.034;7.006;2024-01-25T17:57:35;11.60;99.90
10662;DHT22;5379;51.034;7.006;2024-01-25T18:00:02;11.60;99.90
10662;DHT22;5379;51.034;7.006;2024-01-25T18:02:29;11.60;99.90
10662;DHT22;5379;51.034;7.006;2024-01-25T18:04:58;11.40;99.90
10662;DHT22;5379;51.034;7.006;2024-01-25T18:07:24;11.30;99.90
10662;DHT22;5379;51.034;7.006;2024-01-25T18:09:51;11.40;99.90
10662;DHT22;5379;51.034;7.006;2024-01-25T18:12:18;11.40;99.90
10662;DHT22;5379;51.034;7.006;2024-01-25T18:14:45;11.40;99.90
10662;DHT22;5379;51.034;7.006;2024-01-25T18:17:12;11.30;99.90
10662;DHT22;5379;51.034;7.006;2024-01-25T18:19:40;11.20;99.90
10662;DHT22;5379;51.034;7.006;2024-01-25T18:22:09;11.10;99.90
10662;DHT22;5379;51.034;7.006;2024-01-25T18:24:36;11.10;99.90
10662;DHT22;5379;51.034;7.006;2024-01-25T18:27:04;11.00;99.90
10662;DHT22;5379;51.034;7.006;2024-01-25T18:29:31;11.00;99.90
10662;DHT22;5379;51.034;7.006;2024-01-25T18:31:58;11.10;99.90
10662;DHT22;5379;51.034;7.006;2024-01-25T18:34:25;11.00;99.90
10662;DHT22;5379;51.034;7.006;2024-01-25T18:39:21;10.90;99.90
10662;DHT22;5379;51.034;7.006;2024-01-25T18:41:49;10.70;99.90
10662;DHT22;5379;51.034;7.006;2024-01-25T18:44:18;10.70;99.90
10662;DHT22;5379;51.034;7.006;2024-01-25T18:46:45;10.60;99.90
10662;DHT22;5379;51.034;7.006;2024-01-25T18:49:12;10.60;99.90
10662;DHT22;5379;51.034;7.006;2024-01-25T18:51:39;10.70;99.90
10662;DHT22;5379;51.034;7.006;2024-01-25T18:54:07;10.70;99.90
10662;DHT22;5379;51.034;7.006;2024-01-25T18:56:39;10.70;99.90
10662;DHT22;5379;51.034;7.006;2024-01-25T18:59:06;10.80;99.90
10662;DHT22;5379;51.034;7.006;2024-01-25T19:01:34;10.80;99.90
10662;DHT22;5379;51.034;7.006;2024-01-25T19:04:03;10.80;99.90
10662;DHT22;5379;51.034;7.006;2024-01-25T19:06:32;10.70;99.90
10662;DHT22;5379;51.034;7.006;2024-01-25T19:09:00;10.60;99.90
10662;DHT22;5379;51.034;7.006;2024-01-25T19:11:29;10.50;99.90
10662;DHT22;5379;51.034;7.006;2024-01-25T19:14:00;10.50;99.90
10662;DHT22;5379;51.034;7.006;2024-01-25T19:16:27;10.60;99.90
10662;DHT22;5379;51.034;7.006;2024-01-25T19:18:54;10.50;99.90
10662;DHT22;5379;51.034;7.006;2024-01-25T19:21:21;10.40;99.90
10662;DHT22;5379;51.034;7.006;2024-01-25T19:23:48;10.40;99.90
10662;DHT22;5379;51.034;7.006;2024-01-25T19:26:15;11.50;99.90
10662;DHT22;5379;51.034;7.006;2024-01-25T19:28:42;10.60;99.90
10662;DHT22;5379;51.034;7.006;2024-01-25T19:31:11;10.70;99.90
10662;DHT22;5379;51.034;7.006;2024-01-25T19:33:39;10.70;99.90
10662;DHT22;5379;51.034;7.006;2024-01-25T19:36:07;10.80;99.90
10662;DHT22;5379;51.034;7.006;2024-01-25T19:38:34;10.70;99.90
10662;DHT22;5379;51.034;7.006;2024-01-25T19:41:04;10.60;99.90
10662;DHT22;5379;51.034;7.006;2024-01-25T19:43:31;10.70;99.90
10662;DHT22;5379;51.034;7.006;2024-01-25T19:45:58;10.60;99.90
10662;DHT22;5379;51.034;7.006;2024-01-25T19:48:27;10.60;99.90
10662;DHT22;5379;51.034;7.006;2024-01-25T19:50:54;10.50;99.90
10662;DHT22;5379;51.034;7.006;2024-01-25T19:53:22;10.50;99.90
10662;DHT22;5379;51.034;7.006;2024-01-25T19:55:49;10.60;99.90
10662;DHT22;5379;51.034;7.006;2024-01-25T19:58:17;10.60;99.90
10662;DHT22;5379;51.034;7.006;2024-01-25T20:00:44;10.70;99.90
10662;DHT22;5379;51.034;7.006;2024-01-25T20:03:11;10.70;99.90
10662;DHT22;5379;51.034;7.006;2024-01-25T20:05:41;10.80;99.90
10662;DHT22;5379;51.034;7.006;2024-01-25T20:08:09;10.80;99.90
10662;DHT22;5379;51.034;7.006;2024-01-25T20:10:36;10.80;99.90
10662;DHT22;5379;51.034;7.006;2024-01-25T20:13:03;10.90;99.90
10662;DHT22;5379;51.034;7.006;2024-01-25T20:15:30;10.90;99.90
10662;DHT22;5379;51.034;7.006;2024-01-25T20:18:00;10.90;99.90
10662;DHT22;5379;51.034;7.006;2024-01-25T20:20:27;10.80;99.90
10662;DHT22;5379;51.034;7.006;2024-01-25T20:22:55;11.00;99.90
10662;DHT22;5379;51.034;7.006;2024-01-25T20:25:22;11.00;99.90
10662;DHT22;5379;51.034;7.006;2024-01-25T20:27:49;11.00;99.90
10662;DHT22;5379;51.034;7.006;2024-01-25T20:30:16;11.00;99.90
10662;DHT22;5379;51.034;7.006;2024-01-25T20:32:43;11.00;99.90
10662;DHT22;5379;51.034;7.006;2024-01-25T20:35:10;10.90;99.90
10662;DHT22;5379;51.034;7.006;2024-01-25T20:37:37;10.90;99.90
10662;DHT22;5379;51.034;7.006;2024-01-25T20:40:07;10.90;99.90
10662;DHT22;5379;51.034;7.006;2024-01-25T20:42:34;10.90;99.90
10662;DHT22;5379;51.034;7.006;2024-01-25T20:45:01;10.90;99.90
10662;DHT22;5379;51.034;7.006;2024-01-25T20:47:28;10.90;99.90
10662;DHT22;5379;51.034;7.006;2024-01-25T20:49:58;10.90;99.90
10662;DHT22;5379;51.034;7.006;2024-01-25T20:52:24;10.90;99.90
10662;DHT22;5379;51.034;7.006;2024-01-25T20:54:51;11.00;99.90
10662;DHT22;5379;51.034;7.006;2024-01-25T20:57:20;11.00;99.90
10662;DHT22;5379;51.034;7.006;2024-01-25T20:59:46;10.90;99.90
10662;DHT22;5379;51.034;7.006;2024-01-25T21:02:14;10.80;99.90
10662;DHT22;5379;51.034;7.006;2024-01-25T21:04:41;10.80;99.90
10662;DHT22;5379;51.034;7.006;2024-01-25T21:07:09;10.80;99.90
10662;DHT22;5379;51.034;7.006;2024-01-25T21:09:36;10.80;99.90
10662;DHT22;5379;51.034;7.006;2024-01-25T21:12:04;10.80;99.90
10662;DHT22;5379;51.034;7.006;2024-01-25T21:14:33;10.80;99.90
10662;DHT22;5379;51.034;7.006;2024-01-25T21:17:00;10.80;99.90
10662;DHT22;5379;51.034;7.006;2024-01-25T21:19:27;11.00;99.90